IBE09KB LEMD-LDSP
Flight info
| Callsign | IBE09KB |
|---|---|
| Flight time | 2h 7m |
| Altitude | 38000 |
| Route | PINAR N870 BCN N725 ORKUM M603 ALG L5 SUTOB DCT VAPUP |
| Aircraft | A20N/M-SDE2E3FGHIJ1RWXY/LB1 |
Departure
| Time | 2026-05-05 18:08 |
|---|---|
| Airport | Adolfo Suárez Madrid–Barajas Airport (LEMD) |
Arrival
| Time | 2026-05-05 20:15 |
|---|---|
| Airport | Split Saint Jerome Airport (LDSP) |
| Time | Latitude | Longitude | Altitude | Speed | Heading |
|---|---|---|---|---|---|
| 2026-05-05 17:12 | 40.49004 | -3.58964 | 2022 ft | 0 kts | 271° |
| 2026-05-05 17:54 | 40.49004 | -3.58963 | 2022 ft | 2 kts | 271° |
| 2026-05-05 17:54 | 40.49005 | -3.58930 | 2022 ft | 4 kts | 258° |
| 2026-05-05 17:54 | 40.49014 | -3.58897 | 2029 ft | 4 kts | 232° |
| 2026-05-05 17:55 | 40.49032 | -3.58880 | 2031 ft | 2 kts | 180° |
| 2026-05-05 17:55 | 40.49033 | -3.58880 | 2031 ft | 0 kts | 180° |
| 2026-05-05 17:58 | 40.49031 | -3.58880 | 2031 ft | 2 kts | 180° |
| 2026-05-05 17:58 | 40.49003 | -3.58879 | 2027 ft | 7 kts | 180° |
| 2026-05-05 17:59 | 40.48940 | -3.58879 | 2024 ft | 11 kts | 180° |
| 2026-05-05 17:59 | 40.48859 | -3.58879 | 2025 ft | 13 kts | 180° |
| 2026-05-05 17:59 | 40.48776 | -3.58869 | 2032 ft | 11 kts | 154° |
| 2026-05-05 17:59 | 40.48759 | -3.58776 | 2022 ft | 12 kts | 89° |
| 2026-05-05 18:00 | 40.48759 | -3.58659 | 2022 ft | 14 kts | 90° |
| 2026-05-05 18:00 | 40.48760 | -3.58517 | 2019 ft | 18 kts | 89° |
| 2026-05-05 18:00 | 40.48762 | -3.58327 | 2012 ft | 23 kts | 89° |
| 2026-05-05 18:00 | 40.48762 | -3.58174 | 2007 ft | 16 kts | 90° |
| 2026-05-05 18:01 | 40.48762 | -3.58107 | 2004 ft | 6 kts | 87° |
| 2026-05-05 18:01 | 40.48804 | -3.58053 | 2003 ft | 11 kts | 7° |
| 2026-05-05 18:01 | 40.48858 | -3.57979 | 2000 ft | 15 kts | 89° |
| 2026-05-05 18:01 | 40.48859 | -3.57816 | 1994 ft | 21 kts | 89° |
| 2026-05-05 18:02 | 40.48859 | -3.57607 | 1990 ft | 25 kts | 90° |
| 2026-05-05 18:02 | 40.48858 | -3.57426 | 1986 ft | 6 kts | 89° |
| 2026-05-05 18:02 | 40.48859 | -3.57349 | 1985 ft | 11 kts | 89° |
| 2026-05-05 18:02 | 40.48860 | -3.57233 | 1983 ft | 15 kts | 89° |
| 2026-05-05 18:03 | 40.48862 | -3.57081 | 1980 ft | 19 kts | 89° |
| 2026-05-05 18:03 | 40.48860 | -3.56898 | 1977 ft | 22 kts | 89° |
| 2026-05-05 18:03 | 40.48861 | -3.56682 | 1973 ft | 25 kts | 90° |
| 2026-05-05 18:03 | 40.48863 | -3.56440 | 1967 ft | 25 kts | 90° |
| 2026-05-05 18:04 | 40.48878 | -3.56270 | 1963 ft | 12 kts | 40° |
| 2026-05-05 18:04 | 40.48966 | -3.56244 | 1961 ft | 14 kts | 359° |
| 2026-05-05 18:04 | 40.49070 | -3.56246 | 1961 ft | 16 kts | 2° |
| 2026-05-05 18:04 | 40.49184 | -3.56246 | 1961 ft | 17 kts | 358° |
| 2026-05-05 18:05 | 40.49303 | -3.56251 | 1961 ft | 18 kts | 5° |
| 2026-05-05 18:05 | 40.49430 | -3.56248 | 1961 ft | 19 kts | 358° |
| 2026-05-05 18:05 | 40.49565 | -3.56251 | 1961 ft | 20 kts | 357° |
| 2026-05-05 18:05 | 40.49705 | -3.56247 | 1961 ft | 20 kts | 359° |
| 2026-05-05 18:06 | 40.49849 | -3.56248 | 1961 ft | 21 kts | 0° |
| 2026-05-05 18:06 | 40.49906 | -3.56248 | 1961 ft | 10 kts | 8° |
| 2026-05-05 18:06 | 40.49941 | -3.56133 | 1958 ft | 14 kts | 92° |
| 2026-05-05 18:06 | 40.49961 | -3.56001 | 1958 ft | 15 kts | 58° |
| 2026-05-05 18:07 | 40.50043 | -3.55920 | 1959 ft | 15 kts | 4° |
| 2026-05-05 18:07 | 40.50152 | -3.55921 | 1960 ft | 19 kts | 359° |
| 2026-05-05 18:07 | 40.50505 | -3.55929 | 1964 ft | 83 kts | 359° |
| 2026-05-05 18:07 | 40.51286 | -3.55934 | 1952 ft | 139 kts | 359° |
| 2026-05-05 18:08 | 40.52400 | -3.55936 | 1989 ft | 177 kts | 358° |
| 2026-05-05 18:08 | 40.53627 | -3.55915 | 2521 ft | 175 kts | 356° |
| 2026-05-05 18:08 | 40.54838 | -3.55844 | 3281 ft | 171 kts | 358° |
| 2026-05-05 18:08 | 40.56057 | -3.55747 | 3789 ft | 181 kts | 360° |
| 2026-05-05 18:09 | 40.57361 | -3.55674 | 4158 ft | 199 kts | 357° |
| 2026-05-05 18:09 | 40.58828 | -3.55648 | 4485 ft | 224 kts | 356° |
| 2026-05-05 18:09 | 40.60431 | -3.55663 | 5121 ft | 233 kts | 356° |
| 2026-05-05 18:09 | 40.62066 | -3.55713 | 6045 ft | 235 kts | 355° |
| 2026-05-05 18:10 | 40.63676 | -3.55769 | 7101 ft | 226 kts | 355° |
| 2026-05-05 18:10 | 40.65252 | -3.55784 | 7982 ft | 230 kts | 359° |
| 2026-05-05 18:10 | 40.66876 | -3.55190 | 8382 ft | 259 kts | 28° |
| 2026-05-05 18:10 | 40.68227 | -3.53504 | 8738 ft | 287 kts | 55° |
| 2026-05-05 18:11 | 40.69074 | -3.51038 | 9346 ft | 300 kts | 70° |
| 2026-05-05 18:11 | 40.69712 | -3.48393 | 10167 ft | 304 kts | 71° |
| 2026-05-05 18:11 | 40.70401 | -3.45671 | 10582 ft | 323 kts | 69° |
| 2026-05-05 18:11 | 40.71224 | -3.42805 | 10847 ft | 345 kts | 67° |
| 2026-05-05 18:12 | 40.72146 | -3.39860 | 11396 ft | 354 kts | 66° |
| 2026-05-05 18:12 | 40.73122 | -3.36855 | 12190 ft | 357 kts | 65° |
| 2026-05-05 18:12 | 40.74120 | -3.33818 | 12921 ft | 362 kts | 65° |
| 2026-05-05 18:12 | 40.75128 | -3.30756 | 13690 ft | 366 kts | 65° |
| 2026-05-05 18:13 | 40.76147 | -3.27656 | 14391 ft | 369 kts | 65° |
| 2026-05-05 18:13 | 40.77167 | -3.24543 | 15046 ft | 373 kts | 65° |
| 2026-05-05 18:13 | 40.78186 | -3.21423 | 15730 ft | 375 kts | 65° |
| 2026-05-05 18:13 | 40.79224 | -3.18240 | 16391 ft | 379 kts | 65° |
| 2026-05-05 18:14 | 40.80273 | -3.15020 | 17028 ft | 383 kts | 65° |
| 2026-05-05 18:14 | 40.81330 | -3.11769 | 17666 ft | 387 kts | 65° |
| 2026-05-05 18:14 | 40.82393 | -3.08498 | 18289 ft | 390 kts | 65° |
| 2026-05-05 18:14 | 40.83470 | -3.05182 | 18782 ft | 395 kts | 65° |
| 2026-05-05 18:15 | 40.84561 | -3.01818 | 19262 ft | 401 kts | 64° |
| 2026-05-05 18:15 | 40.85665 | -2.98409 | 19750 ft | 406 kts | 64° |
| 2026-05-05 18:15 | 40.86777 | -2.94965 | 20239 ft | 411 kts | 64° |
| 2026-05-05 18:15 | 40.87889 | -2.91523 | 20718 ft | 415 kts | 64° |
| 2026-05-05 18:16 | 40.89025 | -2.88001 | 21221 ft | 419 kts | 64° |
| 2026-05-05 18:16 | 40.90174 | -2.84436 | 21699 ft | 424 kts | 64° |
| 2026-05-05 18:16 | 40.91333 | -2.80833 | 22194 ft | 428 kts | 64° |
| 2026-05-05 18:16 | 40.92500 | -2.77199 | 22659 ft | 433 kts | 64° |
| 2026-05-05 18:17 | 40.93687 | -2.73500 | 23155 ft | 437 kts | 64° |
| 2026-05-05 18:17 | 40.94881 | -2.69773 | 23627 ft | 440 kts | 64° |
| 2026-05-05 18:17 | 40.96082 | -2.66018 | 24009 ft | 445 kts | 64° |
| 2026-05-05 18:17 | 40.97292 | -2.62230 | 24377 ft | 449 kts | 64° |
| 2026-05-05 18:18 | 40.98341 | -2.58308 | 24737 ft | 456 kts | 72° |
| 2026-05-05 18:18 | 40.99115 | -2.54228 | 25110 ft | 460 kts | 73° |
| 2026-05-05 18:18 | 40.99901 | -2.50083 | 25440 ft | 465 kts | 73° |
| 2026-05-05 18:18 | 41.00688 | -2.45967 | 25775 ft | 469 kts | 73° |
| 2026-05-05 18:19 | 41.01490 | -2.41768 | 26133 ft | 473 kts | 73° |
| 2026-05-05 18:19 | 41.02297 | -2.37526 | 26446 ft | 477 kts | 74° |
| 2026-05-05 18:19 | 41.03111 | -2.33242 | 26787 ft | 481 kts | 74° |
| 2026-05-05 18:19 | 41.03929 | -2.28932 | 27105 ft | 485 kts | 74° |
| 2026-05-05 18:20 | 41.04755 | -2.24567 | 27423 ft | 489 kts | 74° |
| 2026-05-05 18:20 | 41.05583 | -2.20185 | 27724 ft | 492 kts | 74° |
| 2026-05-05 18:20 | 41.06415 | -2.15769 | 28030 ft | 496 kts | 74° |
| 2026-05-05 18:20 | 41.07252 | -2.11312 | 28314 ft | 499 kts | 74° |
| 2026-05-05 18:21 | 41.08093 | -2.06829 | 28601 ft | 503 kts | 74° |
| 2026-05-05 18:21 | 41.08925 | -2.02377 | 28874 ft | 506 kts | 74° |
| 2026-05-05 18:21 | 41.09772 | -1.97825 | 29140 ft | 509 kts | 74° |
| 2026-05-05 18:21 | 41.10625 | -1.93229 | 29440 ft | 512 kts | 75° |
| 2026-05-05 18:22 | 41.11478 | -1.88623 | 29689 ft | 515 kts | 75° |
| 2026-05-05 18:22 | 41.12334 | -1.83992 | 29942 ft | 518 kts | 75° |
| 2026-05-05 18:22 | 41.13194 | -1.79332 | 30204 ft | 520 kts | 75° |
| 2026-05-05 18:22 | 41.14042 | -1.74717 | 30519 ft | 521 kts | 75° |
| 2026-05-05 18:23 | 41.14904 | -1.70024 | 30814 ft | 522 kts | 75° |
| 2026-05-05 18:23 | 41.15760 | -1.65342 | 31126 ft | 523 kts | 75° |
| 2026-05-05 18:23 | 41.16618 | -1.60643 | 31461 ft | 522 kts | 75° |
| 2026-05-05 18:23 | 41.17471 | -1.55958 | 31848 ft | 521 kts | 75° |
| 2026-05-05 18:24 | 41.18310 | -1.51340 | 32221 ft | 519 kts | 75° |
| 2026-05-05 18:24 | 41.19156 | -1.46675 | 32576 ft | 518 kts | 76° |
| 2026-05-05 18:24 | 41.19995 | -1.42036 | 32946 ft | 517 kts | 76° |
| 2026-05-05 18:24 | 41.20835 | -1.37379 | 33291 ft | 516 kts | 76° |
| 2026-05-05 18:25 | 41.21666 | -1.32766 | 33617 ft | 515 kts | 76° |
| 2026-05-05 18:25 | 41.22220 | -1.29683 | 33839 ft | 514 kts | 76° |
| 2026-05-05 18:25 | 41.23312 | -1.23593 | 34195 ft | 513 kts | 76° |
| 2026-05-05 18:25 | 41.24141 | -1.18955 | 34446 ft | 512 kts | 76° |
| 2026-05-05 18:26 | 41.24964 | -1.14340 | 34688 ft | 511 kts | 76° |
| 2026-05-05 18:26 | 41.25769 | -1.09811 | 34925 ft | 510 kts | 76° |
| 2026-05-05 18:26 | 41.26583 | -1.05224 | 35147 ft | 509 kts | 77° |
| 2026-05-05 18:26 | 41.27393 | -1.00646 | 35375 ft | 509 kts | 77° |
| 2026-05-05 18:27 | 41.28204 | -0.96047 | 35586 ft | 508 kts | 77° |
| 2026-05-05 18:27 | 41.29008 | -0.91481 | 35788 ft | 507 kts | 77° |
| 2026-05-05 18:27 | 41.29809 | -0.86920 | 35998 ft | 507 kts | 77° |
| 2026-05-05 18:27 | 41.30610 | -0.82345 | 36186 ft | 506 kts | 77° |
| 2026-05-05 18:28 | 41.32200 | -0.73229 | 36548 ft | 505 kts | 77° |
| 2026-05-05 18:28 | 41.32992 | -0.68679 | 36721 ft | 505 kts | 77° |
| 2026-05-05 18:28 | 41.33770 | -0.64190 | 36890 ft | 504 kts | 77° |
| 2026-05-05 18:29 | 41.34565 | -0.59595 | 37059 ft | 503 kts | 77° |
| 2026-05-05 18:29 | 41.35176 | -0.55007 | 37196 ft | 502 kts | 85° |
| 2026-05-05 18:29 | 41.35380 | -0.50447 | 37322 ft | 501 kts | 92° |
| 2026-05-05 18:29 | 41.35330 | -0.45815 | 37465 ft | 500 kts | 92° |
| 2026-05-05 18:30 | 41.35293 | -0.41185 | 37602 ft | 500 kts | 92° |
| 2026-05-05 18:30 | 41.35263 | -0.36556 | 37739 ft | 500 kts | 92° |
| 2026-05-05 18:30 | 41.35231 | -0.31933 | 37874 ft | 500 kts | 92° |
| 2026-05-05 18:30 | 41.35196 | -0.27309 | 37913 ft | 500 kts | 92° |
| 2026-05-05 18:31 | 41.35116 | -0.18074 | 37917 ft | 499 kts | 92° |
| 2026-05-05 18:31 | 41.35027 | -0.08841 | 37919 ft | 499 kts | 93° |
| 2026-05-05 18:32 | 41.34930 | 0.00392 | 37914 ft | 499 kts | 93° |
| 2026-05-05 18:32 | 41.34826 | 0.09623 | 37918 ft | 499 kts | 93° |
| 2026-05-05 18:33 | 41.34715 | 0.18875 | 37918 ft | 500 kts | 93° |
| 2026-05-05 18:33 | 41.34596 | 0.28127 | 37916 ft | 500 kts | 94° |
| 2026-05-05 18:34 | 41.34468 | 0.37390 | 37917 ft | 501 kts | 94° |
| 2026-05-05 18:34 | 41.34334 | 0.46666 | 37921 ft | 501 kts | 94° |
| 2026-05-05 18:35 | 41.34192 | 0.55940 | 37922 ft | 502 kts | 94° |
| 2026-05-05 18:35 | 41.34042 | 0.65229 | 37926 ft | 502 kts | 94° |
| 2026-05-05 18:36 | 41.33885 | 0.74514 | 37927 ft | 502 kts | 94° |
| 2026-05-05 18:36 | 41.33722 | 0.83764 | 37925 ft | 503 kts | 94° |
| 2026-05-05 18:37 | 41.33550 | 0.93052 | 37919 ft | 502 kts | 94° |
| 2026-05-05 18:37 | 41.33370 | 1.02341 | 37914 ft | 502 kts | 95° |
| 2026-05-05 18:38 | 41.33184 | 1.11625 | 37913 ft | 503 kts | 95° |
| 2026-05-05 18:38 | 41.32989 | 1.20945 | 37914 ft | 504 kts | 95° |
| 2026-05-05 18:39 | 41.32788 | 1.30239 | 37915 ft | 503 kts | 95° |
| 2026-05-05 18:39 | 41.32577 | 1.39560 | 37909 ft | 504 kts | 95° |
| 2026-05-05 18:40 | 41.32360 | 1.48875 | 37907 ft | 504 kts | 95° |
| 2026-05-05 18:40 | 41.32134 | 1.58209 | 37908 ft | 505 kts | 95° |
| 2026-05-05 18:41 | 41.31941 | 1.65978 | 37908 ft | 506 kts | 95° |
| 2026-05-05 18:41 | 41.31701 | 1.75334 | 37907 ft | 507 kts | 96° |
| 2026-05-05 18:42 | 41.31451 | 1.84712 | 37909 ft | 508 kts | 96° |
| 2026-05-05 18:42 | 41.31193 | 1.94112 | 37920 ft | 509 kts | 96° |
| 2026-05-05 18:43 | 41.30928 | 2.03523 | 37909 ft | 509 kts | 96° |
| 2026-05-05 18:43 | 41.30349 | 2.12855 | 37910 ft | 504 kts | 104° |
| 2026-05-05 18:44 | 41.28874 | 2.21941 | 37908 ft | 502 kts | 107° |
| 2026-05-05 18:44 | 41.27378 | 2.31008 | 37903 ft | 502 kts | 107° |
| 2026-05-05 18:45 | 41.25886 | 2.40013 | 37901 ft | 502 kts | 107° |
| 2026-05-05 18:45 | 41.24375 | 2.49070 | 37893 ft | 502 kts | 107° |
| 2026-05-05 18:46 | 41.22859 | 2.58111 | 37891 ft | 502 kts | 107° |
| 2026-05-05 18:46 | 41.21335 | 2.67153 | 37892 ft | 501 kts | 107° |
| 2026-05-05 18:47 | 41.19810 | 2.76159 | 37877 ft | 498 kts | 107° |
| 2026-05-05 18:47 | 41.18284 | 2.85116 | 37892 ft | 497 kts | 107° |
| 2026-05-05 18:48 | 41.16755 | 2.94049 | 37883 ft | 496 kts | 107° |
| 2026-05-05 18:48 | 41.15221 | 3.02962 | 37886 ft | 495 kts | 108° |
| 2026-05-05 18:49 | 41.13682 | 3.11862 | 37885 ft | 495 kts | 108° |
| 2026-05-05 18:49 | 41.12134 | 3.20772 | 37886 ft | 496 kts | 108° |
| 2026-05-05 18:50 | 41.10577 | 3.29692 | 37891 ft | 496 kts | 108° |
| 2026-05-05 18:50 | 41.09011 | 3.38616 | 37887 ft | 496 kts | 108° |
| 2026-05-05 18:51 | 41.07447 | 3.47494 | 37886 ft | 497 kts | 108° |
| 2026-05-05 18:51 | 41.05867 | 3.56422 | 37882 ft | 497 kts | 108° |
| 2026-05-05 18:52 | 41.04283 | 3.65324 | 37881 ft | 495 kts | 109° |
| 2026-05-05 18:52 | 41.02703 | 3.74157 | 37878 ft | 495 kts | 109° |
| 2026-05-05 18:53 | 41.01106 | 3.83042 | 37878 ft | 495 kts | 109° |
| 2026-05-05 18:53 | 40.99497 | 3.91940 | 37878 ft | 495 kts | 109° |
| 2026-05-05 18:54 | 40.97897 | 4.00745 | 37881 ft | 495 kts | 109° |
| 2026-05-05 18:54 | 40.96279 | 4.09605 | 37879 ft | 495 kts | 109° |
| 2026-05-05 18:55 | 40.94655 | 4.18459 | 37875 ft | 494 kts | 109° |
| 2026-05-05 18:55 | 40.93027 | 4.27298 | 37882 ft | 494 kts | 109° |
| 2026-05-05 18:56 | 40.91400 | 4.36086 | 37883 ft | 494 kts | 110° |
| 2026-05-05 18:56 | 40.89953 | 4.44984 | 37892 ft | 499 kts | 101° |
| 2026-05-05 18:57 | 40.89382 | 4.54176 | 37887 ft | 501 kts | 99° |
| 2026-05-05 18:57 | 40.88841 | 4.63363 | 37889 ft | 501 kts | 99° |
| 2026-05-05 18:58 | 40.88233 | 4.72517 | 37892 ft | 500 kts | 100° |
| 2026-05-05 18:58 | 40.87600 | 4.81613 | 37892 ft | 500 kts | 100° |
| 2026-05-05 18:59 | 40.86953 | 4.90773 | 37883 ft | 499 kts | 100° |
| 2026-05-05 18:59 | 40.86303 | 4.99890 | 37886 ft | 498 kts | 101° |
| 2026-05-05 19:00 | 40.85648 | 5.08967 | 37885 ft | 498 kts | 101° |
| 2026-05-05 19:00 | 40.84983 | 5.18089 | 37892 ft | 497 kts | 101° |
| 2026-05-05 19:01 | 40.84315 | 5.27157 | 37891 ft | 497 kts | 101° |
| 2026-05-05 19:01 | 40.83637 | 5.36251 | 37890 ft | 497 kts | 101° |
| 2026-05-05 19:02 | 40.82958 | 5.45279 | 37898 ft | 496 kts | 101° |
| 2026-05-05 19:02 | 40.82266 | 5.54362 | 37900 ft | 496 kts | 101° |
| 2026-05-05 19:03 | 40.81568 | 5.63443 | 37909 ft | 496 kts | 101° |
| 2026-05-05 19:03 | 40.80863 | 5.72512 | 37900 ft | 495 kts | 101° |
| 2026-05-05 19:04 | 40.80160 | 5.81485 | 37899 ft | 493 kts | 101° |
| 2026-05-05 19:04 | 40.79443 | 5.90515 | 37906 ft | 493 kts | 101° |
| 2026-05-05 19:05 | 40.78726 | 5.99474 | 37902 ft | 493 kts | 101° |
| 2026-05-05 19:05 | 40.77997 | 6.08476 | 37903 ft | 493 kts | 101° |
| 2026-05-05 19:06 | 40.77261 | 6.17485 | 37908 ft | 492 kts | 101° |
| 2026-05-05 19:06 | 40.76522 | 6.26430 | 37902 ft | 492 kts | 101° |
| 2026-05-05 19:07 | 40.75774 | 6.35410 | 37902 ft | 492 kts | 101° |
| 2026-05-05 19:07 | 40.75023 | 6.44347 | 37914 ft | 492 kts | 101° |
| 2026-05-05 19:08 | 40.74261 | 6.53326 | 37915 ft | 492 kts | 101° |
| 2026-05-05 19:08 | 40.73492 | 6.62305 | 37918 ft | 492 kts | 101° |
| 2026-05-05 19:09 | 40.72717 | 6.71275 | 37924 ft | 491 kts | 101° |
| 2026-05-05 19:09 | 40.71940 | 6.80182 | 37922 ft | 491 kts | 101° |
| 2026-05-05 19:10 | 40.71152 | 6.89127 | 37928 ft | 490 kts | 101° |
| 2026-05-05 19:10 | 40.70363 | 6.98011 | 37917 ft | 490 kts | 101° |
| 2026-05-05 19:11 | 40.69563 | 7.06944 | 37922 ft | 490 kts | 101° |
| 2026-05-05 19:11 | 40.68756 | 7.15865 | 37926 ft | 489 kts | 101° |
| 2026-05-05 19:12 | 40.67949 | 7.24719 | 37923 ft | 489 kts | 101° |
| 2026-05-05 19:12 | 40.67129 | 7.33633 | 37930 ft | 489 kts | 101° |
| 2026-05-05 19:13 | 40.66304 | 7.42533 | 37932 ft | 489 kts | 101° |
| 2026-05-05 19:13 | 40.65478 | 7.51360 | 37935 ft | 488 kts | 101° |
| 2026-05-05 19:14 | 40.64641 | 7.60237 | 37936 ft | 488 kts | 101° |
| 2026-05-05 19:14 | 40.63795 | 7.69130 | 37941 ft | 488 kts | 101° |
| 2026-05-05 19:15 | 40.62946 | 7.77984 | 37944 ft | 488 kts | 101° |
| 2026-05-05 19:15 | 40.62095 | 7.86787 | 37956 ft | 487 kts | 101° |
| 2026-05-05 19:16 | 40.61235 | 7.95648 | 37966 ft | 487 kts | 101° |
| 2026-05-05 19:16 | 40.61167 | 8.04598 | 37967 ft | 492 kts | 86° |
| 2026-05-05 19:17 | 40.61926 | 8.13573 | 37965 ft | 492 kts | 86° |
| 2026-05-05 19:17 | 40.62846 | 8.22500 | 37965 ft | 493 kts | 79° |
| 2026-05-05 19:18 | 40.64907 | 8.31054 | 37963 ft | 494 kts | 67° |
| 2026-05-05 19:18 | 40.67560 | 8.39415 | 37959 ft | 494 kts | 68° |
| 2026-05-05 19:19 | 40.70192 | 8.47826 | 37960 ft | 495 kts | 68° |
| 2026-05-05 19:19 | 40.72798 | 8.56169 | 37963 ft | 495 kts | 68° |
| 2026-05-05 19:20 | 40.75418 | 8.64577 | 37958 ft | 495 kts | 68° |
| 2026-05-05 19:20 | 40.78033 | 8.72995 | 37964 ft | 495 kts | 68° |
| 2026-05-05 19:21 | 40.80637 | 8.81399 | 37962 ft | 496 kts | 68° |
| 2026-05-05 19:21 | 40.83241 | 8.89817 | 37958 ft | 495 kts | 68° |
| 2026-05-05 19:22 | 40.85853 | 8.98247 | 37958 ft | 495 kts | 68° |
| 2026-05-05 19:22 | 40.88443 | 9.06629 | 37966 ft | 495 kts | 68° |
| 2026-05-05 19:23 | 40.91048 | 9.15091 | 37973 ft | 495 kts | 68° |
| 2026-05-05 19:23 | 40.93639 | 9.23536 | 37979 ft | 495 kts | 68° |
| 2026-05-05 19:24 | 40.96212 | 9.31949 | 37986 ft | 496 kts | 68° |
| 2026-05-05 19:24 | 40.98803 | 9.40433 | 37988 ft | 496 kts | 68° |
| 2026-05-05 19:25 | 41.01360 | 9.48838 | 37986 ft | 494 kts | 68° |
| 2026-05-05 19:25 | 41.03928 | 9.57304 | 37986 ft | 495 kts | 68° |
| 2026-05-05 19:26 | 41.06486 | 9.65768 | 37994 ft | 494 kts | 68° |
| 2026-05-05 19:26 | 41.08604 | 9.72794 | 37981 ft | 494 kts | 68° |
| 2026-05-05 19:27 | 41.11548 | 9.82640 | 37963 ft | 494 kts | 68° |
| 2026-05-05 19:27 | 41.14043 | 9.91128 | 37960 ft | 493 kts | 68° |
| 2026-05-05 19:28 | 41.16115 | 9.98191 | 37963 ft | 493 kts | 68° |
| 2026-05-05 19:28 | 41.18615 | 10.06679 | 37975 ft | 493 kts | 68° |
| 2026-05-05 19:29 | 41.21134 | 10.15150 | 37980 ft | 492 kts | 68° |
| 2026-05-05 19:29 | 41.23637 | 10.23558 | 37976 ft | 492 kts | 68° |
| 2026-05-05 19:30 | 41.26157 | 10.32024 | 37985 ft | 492 kts | 68° |
| 2026-05-05 19:30 | 41.28666 | 10.40492 | 37985 ft | 491 kts | 68° |
| 2026-05-05 19:31 | 41.31149 | 10.48904 | 37991 ft | 491 kts | 68° |
| 2026-05-05 19:31 | 41.33643 | 10.57378 | 37989 ft | 490 kts | 68° |
| 2026-05-05 19:32 | 41.36128 | 10.65851 | 37982 ft | 490 kts | 68° |
| 2026-05-05 19:32 | 41.38590 | 10.74274 | 37985 ft | 490 kts | 68° |
| 2026-05-05 19:33 | 41.41059 | 10.82747 | 37991 ft | 490 kts | 68° |
| 2026-05-05 19:33 | 41.43499 | 10.91235 | 37985 ft | 490 kts | 69° |
| 2026-05-05 19:34 | 41.45850 | 10.99698 | 37995 ft | 490 kts | 69° |
| 2026-05-05 19:35 | 41.49413 | 11.12494 | 37993 ft | 490 kts | 69° |
| 2026-05-05 19:35 | 41.51802 | 11.20964 | 37994 ft | 490 kts | 68° |
| 2026-05-05 19:36 | 41.54195 | 11.29485 | 38006 ft | 490 kts | 69° |
| 2026-05-05 19:36 | 41.56584 | 11.38035 | 38007 ft | 490 kts | 69° |
| 2026-05-05 19:37 | 41.58972 | 11.46577 | 38015 ft | 491 kts | 68° |
| 2026-05-05 19:37 | 41.61376 | 11.55077 | 38014 ft | 491 kts | 68° |
| 2026-05-05 19:38 | 41.63792 | 11.63650 | 38024 ft | 491 kts | 68° |
| 2026-05-05 19:38 | 41.66177 | 11.72157 | 38029 ft | 491 kts | 68° |
| 2026-05-05 19:39 | 41.68568 | 11.80719 | 38037 ft | 491 kts | 68° |
| 2026-05-05 19:39 | 41.70957 | 11.89302 | 38043 ft | 491 kts | 68° |
| 2026-05-05 19:40 | 41.73307 | 11.97846 | 38050 ft | 491 kts | 69° |
| 2026-05-05 19:40 | 41.75660 | 12.06437 | 38055 ft | 491 kts | 69° |
| 2026-05-05 19:41 | 41.78010 | 12.15037 | 38058 ft | 491 kts | 69° |
| 2026-05-05 19:41 | 41.80422 | 12.23532 | 38057 ft | 489 kts | 63° |
| 2026-05-05 19:42 | 41.83118 | 12.30288 | 38054 ft | 487 kts | 58° |
| 2026-05-05 19:42 | 41.86410 | 12.38182 | 38052 ft | 487 kts | 58° |
| 2026-05-05 19:43 | 41.89704 | 12.46126 | 38071 ft | 487 kts | 58° |
| 2026-05-05 19:43 | 41.92997 | 12.54078 | 38070 ft | 486 kts | 58° |
| 2026-05-05 19:44 | 41.96287 | 12.62042 | 38070 ft | 486 kts | 58° |
| 2026-05-05 19:44 | 41.99547 | 12.69952 | 38067 ft | 486 kts | 58° |
| 2026-05-05 19:45 | 42.02825 | 12.77928 | 38065 ft | 486 kts | 58° |
| 2026-05-05 19:45 | 42.06078 | 12.85864 | 38060 ft | 486 kts | 58° |
| 2026-05-05 19:46 | 42.09332 | 12.93823 | 38057 ft | 484 kts | 59° |
| 2026-05-05 19:46 | 42.12546 | 13.01798 | 38058 ft | 484 kts | 60° |
| 2026-05-05 19:47 | 42.15658 | 13.09834 | 38064 ft | 487 kts | 60° |
| 2026-05-05 19:47 | 42.18793 | 13.17928 | 38062 ft | 485 kts | 60° |
| 2026-05-05 19:48 | 42.21936 | 13.26007 | 38065 ft | 485 kts | 59° |
| 2026-05-05 19:48 | 42.25047 | 13.34025 | 38058 ft | 485 kts | 59° |
| 2026-05-05 19:49 | 42.28185 | 13.42132 | 38052 ft | 485 kts | 60° |
| 2026-05-05 19:49 | 42.31309 | 13.50230 | 38046 ft | 486 kts | 60° |
| 2026-05-05 19:50 | 42.34411 | 13.58292 | 37781 ft | 486 kts | 59° |
| 2026-05-05 19:50 | 42.36125 | 13.62227 | 37505 ft | 484 kts | 54° |
| 2026-05-05 19:50 | 42.37930 | 13.66088 | 37232 ft | 486 kts | 54° |
| 2026-05-05 19:50 | 42.39736 | 13.69969 | 36961 ft | 487 kts | 54° |
| 2026-05-05 19:51 | 42.41537 | 13.73854 | 36692 ft | 488 kts | 54° |
| 2026-05-05 19:51 | 42.43281 | 13.77750 | 36396 ft | 490 kts | 56° |
| 2026-05-05 19:51 | 42.45065 | 13.81757 | 35806 ft | 492 kts | 55° |
| 2026-05-05 19:51 | 42.46837 | 13.85657 | 34790 ft | 495 kts | 55° |
| 2026-05-05 19:52 | 42.48656 | 13.89684 | 33306 ft | 506 kts | 55° |
| 2026-05-05 19:52 | 42.50493 | 13.93802 | 31932 ft | 513 kts | 56° |
| 2026-05-05 19:52 | 42.52325 | 13.97955 | 30913 ft | 513 kts | 56° |
| 2026-05-05 19:52 | 42.54142 | 14.02101 | 30326 ft | 508 kts | 56° |
| 2026-05-05 19:53 | 42.55929 | 14.06193 | 29925 ft | 499 kts | 56° |
| 2026-05-05 19:53 | 42.57687 | 14.10223 | 29372 ft | 492 kts | 56° |
| 2026-05-05 19:53 | 42.59415 | 14.14188 | 28829 ft | 485 kts | 57° |
| 2026-05-05 19:53 | 42.61102 | 14.18062 | 28305 ft | 478 kts | 57° |
| 2026-05-05 19:54 | 42.62787 | 14.21933 | 27777 ft | 472 kts | 57° |
| 2026-05-05 19:54 | 42.64447 | 14.25753 | 27249 ft | 466 kts | 57° |
| 2026-05-05 19:54 | 42.66089 | 14.29534 | 26748 ft | 461 kts | 57° |
| 2026-05-05 19:54 | 42.67708 | 14.33268 | 26229 ft | 455 kts | 57° |
| 2026-05-05 19:55 | 42.69307 | 14.36963 | 25725 ft | 450 kts | 58° |
| 2026-05-05 19:55 | 42.70891 | 14.40625 | 25219 ft | 445 kts | 58° |
| 2026-05-05 19:55 | 42.72431 | 14.44189 | 24815 ft | 438 kts | 58° |
| 2026-05-05 19:55 | 42.73966 | 14.47750 | 24575 ft | 435 kts | 58° |
| 2026-05-05 19:56 | 42.75505 | 14.51321 | 24201 ft | 439 kts | 58° |
| 2026-05-05 19:56 | 42.77054 | 14.54919 | 23654 ft | 441 kts | 58° |
| 2026-05-05 19:56 | 42.78602 | 14.58520 | 23099 ft | 437 kts | 58° |
| 2026-05-05 19:56 | 42.80127 | 14.62078 | 22568 ft | 432 kts | 58° |
| 2026-05-05 19:57 | 42.81611 | 14.65545 | 22045 ft | 426 kts | 58° |
| 2026-05-05 19:57 | 42.82621 | 14.67906 | 21697 ft | 423 kts | 58° |
| 2026-05-05 19:57 | 42.84568 | 14.72461 | 21014 ft | 417 kts | 58° |
| 2026-05-05 19:57 | 42.86024 | 14.75871 | 20500 ft | 412 kts | 58° |
| 2026-05-05 19:58 | 42.87458 | 14.79234 | 19993 ft | 408 kts | 58° |
| 2026-05-05 19:58 | 42.88863 | 14.82531 | 19501 ft | 405 kts | 58° |
| 2026-05-05 19:58 | 42.90273 | 14.85845 | 18991 ft | 402 kts | 58° |
| 2026-05-05 19:58 | 42.91675 | 14.89144 | 18449 ft | 401 kts | 58° |
| 2026-05-05 19:59 | 42.93070 | 14.92430 | 17953 ft | 396 kts | 58° |
| 2026-05-05 19:59 | 42.94442 | 14.95667 | 17463 ft | 392 kts | 58° |
| 2026-05-05 19:59 | 42.95782 | 14.98831 | 16980 ft | 388 kts | 58° |
| 2026-05-05 19:59 | 42.97124 | 15.02001 | 16503 ft | 384 kts | 58° |
| 2026-05-05 20:00 | 42.98455 | 15.05151 | 16021 ft | 380 kts | 58° |
| 2026-05-05 20:00 | 42.99773 | 15.08272 | 15549 ft | 377 kts | 58° |
| 2026-05-05 20:00 | 43.01079 | 15.11368 | 15077 ft | 374 kts | 58° |
| 2026-05-05 20:00 | 43.02372 | 15.14437 | 14617 ft | 371 kts | 59° |
| 2026-05-05 20:01 | 43.03655 | 15.17484 | 14144 ft | 368 kts | 59° |
| 2026-05-05 20:01 | 43.04913 | 15.20476 | 13682 ft | 365 kts | 59° |
| 2026-05-05 20:01 | 43.06179 | 15.23493 | 13210 ft | 362 kts | 59° |
| 2026-05-05 20:01 | 43.07422 | 15.26455 | 12753 ft | 357 kts | 59° |
| 2026-05-05 20:02 | 43.08650 | 15.29385 | 12319 ft | 353 kts | 59° |
| 2026-05-05 20:02 | 43.09861 | 15.32279 | 11887 ft | 349 kts | 59° |
| 2026-05-05 20:02 | 43.11064 | 15.35158 | 11440 ft | 346 kts | 59° |
| 2026-05-05 20:02 | 43.12254 | 15.38012 | 11010 ft | 343 kts | 59° |
| 2026-05-05 20:03 | 43.13434 | 15.40842 | 10510 ft | 342 kts | 59° |
| 2026-05-05 20:03 | 43.14589 | 15.43612 | 10266 ft | 333 kts | 59° |
| 2026-05-05 20:03 | 43.15717 | 15.46323 | 10143 ft | 320 kts | 59° |
| 2026-05-05 20:03 | 43.16802 | 15.48930 | 9952 ft | 310 kts | 59° |
| 2026-05-05 20:04 | 43.17863 | 15.51481 | 9679 ft | 303 kts | 59° |
| 2026-05-05 20:04 | 43.18893 | 15.53958 | 9536 ft | 297 kts | 59° |
| 2026-05-05 20:04 | 43.19934 | 15.56461 | 9261 ft | 307 kts | 59° |
| 2026-05-05 20:04 | 43.20984 | 15.58989 | 8933 ft | 309 kts | 59° |
| 2026-05-05 20:05 | 43.22035 | 15.61524 | 8711 ft | 302 kts | 59° |
| 2026-05-05 20:05 | 43.23069 | 15.64022 | 8323 ft | 301 kts | 59° |
| 2026-05-05 20:05 | 43.24095 | 15.66502 | 7858 ft | 297 kts | 59° |
| 2026-05-05 20:05 | 43.25102 | 15.68939 | 7498 ft | 289 kts | 59° |
| 2026-05-05 20:06 | 43.26090 | 15.71332 | 7156 ft | 287 kts | 59° |
| 2026-05-05 20:06 | 43.27069 | 15.73704 | 6824 ft | 284 kts | 59° |
| 2026-05-05 20:06 | 43.28040 | 15.76055 | 6477 ft | 282 kts | 59° |
| 2026-05-05 20:06 | 43.29001 | 15.78385 | 6144 ft | 279 kts | 59° |
| 2026-05-05 20:07 | 43.29940 | 15.80663 | 5822 ft | 276 kts | 59° |
| 2026-05-05 20:07 | 43.30880 | 15.82943 | 5494 ft | 273 kts | 59° |
| 2026-05-05 20:07 | 43.31812 | 15.85207 | 5167 ft | 270 kts | 60° |
| 2026-05-05 20:07 | 43.32735 | 15.87450 | 4862 ft | 267 kts | 60° |
| 2026-05-05 20:08 | 43.33645 | 15.89666 | 4532 ft | 265 kts | 60° |
| 2026-05-05 20:08 | 43.34548 | 15.91864 | 4216 ft | 262 kts | 61° |
| 2026-05-05 20:08 | 43.35428 | 15.94004 | 3903 ft | 260 kts | 61° |
| 2026-05-05 20:08 | 43.36314 | 15.96163 | 3590 ft | 258 kts | 62° |
| 2026-05-05 20:09 | 43.37194 | 15.98306 | 3277 ft | 257 kts | 62° |
| 2026-05-05 20:09 | 43.38057 | 16.00452 | 2963 ft | 255 kts | 65° |
| 2026-05-05 20:09 | 43.38907 | 16.02594 | 2825 ft | 257 kts | 61° |
| 2026-05-05 20:09 | 43.39876 | 16.04590 | 2812 ft | 242 kts | 57° |
| 2026-05-05 20:10 | 43.40853 | 16.06381 | 2806 ft | 226 kts | 55° |
| 2026-05-05 20:10 | 43.41763 | 16.08013 | 2806 ft | 210 kts | 56° |
| 2026-05-05 20:10 | 43.42631 | 16.09574 | 2820 ft | 208 kts | 56° |
| 2026-05-05 20:10 | 43.43492 | 16.11116 | 2819 ft | 195 kts | 55° |
| 2026-05-05 20:11 | 43.44273 | 16.12515 | 2811 ft | 175 kts | 56° |
| 2026-05-05 20:11 | 43.44982 | 16.13788 | 2720 ft | 162 kts | 57° |
| 2026-05-05 20:11 | 43.45641 | 16.14971 | 2537 ft | 150 kts | 56° |
| 2026-05-05 20:11 | 43.46250 | 16.16066 | 2372 ft | 146 kts | 58° |
| 2026-05-05 20:12 | 43.46855 | 16.17151 | 2173 ft | 138 kts | 58° |
| 2026-05-05 20:12 | 43.47471 | 16.18180 | 1994 ft | 140 kts | 57° |
| 2026-05-05 20:12 | 43.48030 | 16.19267 | 1802 ft | 139 kts | 58° |
| 2026-05-05 20:12 | 43.48420 | 16.19958 | 1681 ft | 137 kts | 58° |
| 2026-05-05 20:13 | 43.49186 | 16.21339 | 1426 ft | 135 kts | 57° |
| 2026-05-05 20:13 | 43.49573 | 16.22033 | 1311 ft | 139 kts | 57° |
| 2026-05-05 20:13 | 43.50187 | 16.23030 | 1112 ft | 135 kts | 53° |
| 2026-05-05 20:13 | 43.50757 | 16.24049 | 945 ft | 135 kts | 55° |
| 2026-05-05 20:14 | 43.51301 | 16.25105 | 670 ft | 132 kts | 54° |
| 2026-05-05 20:14 | 43.52032 | 16.26442 | 431 ft | 132 kts | 52° |
| 2026-05-05 20:14 | 43.52408 | 16.27122 | 327 ft | 133 kts | 51° |
| 2026-05-05 20:14 | 43.52973 | 16.28119 | 173 ft | 131 kts | 51° |
| 2026-05-05 20:15 | 43.53519 | 16.29098 | 81 ft | 125 kts | 53° |
| 2026-05-05 20:15 | 43.53988 | 16.29967 | 63 ft | 100 kts | 52° |
| 2026-05-05 20:15 | 43.54350 | 16.30611 | 49 ft | 69 kts | 52° |
| 2026-05-05 20:15 | 43.54480 | 16.30852 | 49 ft | 15 kts | 54° |
| 2026-05-05 20:16 | 43.54508 | 16.30931 | 50 ft | 0 kts | 55° |
| 2026-05-05 20:16 | 43.54507 | 16.30930 | 50 ft | 0 kts | 57° |
| 2026-05-05 20:16 | 43.54511 | 16.30930 | 50 ft | 0 kts | 15° |
| 2026-05-05 20:16 | 43.54517 | 16.30922 | 48 ft | 4 kts | 323° |
| 2026-05-05 20:17 | 43.54493 | 16.30884 | 49 ft | 17 kts | 221° |
| 2026-05-05 20:17 | 43.54406 | 16.30723 | 49 ft | 22 kts | 233° |
| 2026-05-05 20:17 | 43.54311 | 16.30546 | 53 ft | 23 kts | 233° |
| 2026-05-05 20:17 | 43.54219 | 16.30374 | 54 ft | 23 kts | 232° |
| 2026-05-05 20:18 | 43.54121 | 16.30200 | 57 ft | 20 kts | 231° |
| 2026-05-05 20:18 | 43.54010 | 16.30100 | 64 ft | 20 kts | 193° |
| 2026-05-05 20:18 | 43.53914 | 16.30063 | 68 ft | 10 kts | 203° |
| 2026-05-05 20:18 | 43.53868 | 16.29990 | 68 ft | 11 kts | 231° |
| 2026-05-05 20:19 | 43.53813 | 16.29893 | 68 ft | 14 kts | 233° |
| 2026-05-05 20:19 | 43.53770 | 16.29814 | 64 ft | 0 kts | 234° |
| 2026-05-05 20:19 | 43.53757 | 16.29799 | 62 ft | 4 kts | 207° |
| 2026-05-05 20:19 | 43.53743 | 16.29819 | 68 ft | 4 kts | 109° |
| 2026-05-05 20:20 | 43.53732 | 16.29864 | 63 ft | 3 kts | 115° |
| 2026-05-05 20:20 | 43.53729 | 16.29872 | 65 ft | 0 kts | 115° |